Time,TemperatureF,DewpointF,PressureIn,WindDirection,WindDirectionDegrees,WindSpeedMPH,WindSpeedGustMPH,Humidity,HourlyPrecipIn,Conditions,Clouds,dailyrainin,SolarRadiationWatts/m^2,SoftwareType,DateUTC
2013-02-06 00:00:00,23.4,16.0,30.00,NW,320,8.0,-999.0,73,0.00,,,0.00,0,WeatherHawk,2013-02-06 05:00:00,
2013-02-06 00:04:00,23.4,16.0,30.01,WNW,287,8.0,-999.0,73,0.00,,,0.00,0,WeatherHawk,2013-02-06 05:04:00,
2013-02-06 00:09:00,22.9,14.6,30.01,NW,317,8.0,-999.0,70,0.00,,,0.00,0,WeatherHawk,2013-02-06 05:09:00,
2013-02-06 00:14:00,22.8,13.5,30.01,NNW,333,11.0,-999.0,67,0.00,,,0.00,0,WeatherHawk,2013-02-06 05:14:00,
2013-02-06 00:19:00,22.7,13.4,30.02,WNW,287,5.0,-999.0,67,0.00,,,0.00,0,WeatherHawk,2013-02-06 05:19:00,
2013-02-06 00:25:00,22.2,12.9,30.02,NW,315,9.0,-999.0,67,0.00,,,0.00,0,WeatherHawk,2013-02-06 05:25:00,
2013-02-06 00:35:00,21.9,12.3,30.03,NW,305,9.0,-999.0,66,0.00,,,0.00,0,WeatherHawk,2013-02-06 05:35:00,
2013-02-06 00:40:00,21.8,10.8,30.03,NW,320,13.0,-999.0,62,0.00,,,0.00,0,WeatherHawk,2013-02-06 05:40:00,
2013-02-06 00:45:00,21.7,10.0,30.03,NNW,330,7.0,-999.0,60,0.00,,,0.00,0,WeatherHawk,2013-02-06 05:45:00,
2013-02-06 00:50:00,21.5,9.1,30.04,NW,318,8.0,-999.0,58,0.00,,,0.00,0,WeatherHawk,2013-02-06 05:50:00,
2013-02-06 00:55:00,21.5,8.3,30.05,NW,322,13.0,-999.0,56,0.00,,,0.00,0,WeatherHawk,2013-02-06 05:55:00,
2013-02-06 01:00:00,21.4,7.8,30.05,NW,308,9.0,-999.0,55,0.00,,,0.00,0,WeatherHawk,2013-02-06 06:00:00,
2013-02-06 01:05:00,21.5,8.6,30.06,NNW,332,9.0,-999.0,57,0.00,,,0.00,0,WeatherHawk,2013-02-06 06:05:00,
2013-02-06 01:10:00,21.3,8.5,30.06,NW,323,14.0,-999.0,57,0.00,,,0.00,0,WeatherHawk,2013-02-06 06:10:00,
2013-02-06 01:15:00,21.2,6.3,30.06,WNW,296,10.0,-999.0,52,0.00,,,0.00,0,WeatherHawk,2013-02-06 06:15:00,
2013-02-06 01:20:00,21.2,5.9,30.07,NW,311,9.0,-999.0,51,0.00,,,0.00,0,WeatherHawk,2013-02-06 06:20:00,
2013-02-06 01:25:00,21.1,4.1,30.07,NW,316,13.0,-999.0,47,0.00,,,0.00,1,WeatherHawk,2013-02-06 06:25:00,
2013-02-06 01:30:00,21.0,3.5,30.07,WNW,297,8.0,-999.0,46,0.00,,,0.00,0,WeatherHawk,2013-02-06 06:30:00,
2013-02-06 01:35:00,20.9,2.5,30.08,NNW,327,8.0,-999.0,44,0.00,,,0.00,0,WeatherHawk,2013-02-06 06:35:00,
2013-02-06 01:40:00,20.8,2.4,30.07,NNW,329,8.0,-999.0,44,0.00,,,0.00,0,WeatherHawk,2013-02-06 06:40:00,
2013-02-06 01:45:00,20.3,1.0,30.08,NW,326,6.0,-999.0,42,0.00,,,0.00,0,WeatherHawk,2013-02-06 06:45:00,
2013-02-06 01:50:00,20.5,0.1,30.09,NW,315,7.0,-999.0,40,0.00,,,0.00,0,WeatherHawk,2013-02-06 06:50:00,
2013-02-06 01:55:00,20.0,0.6,30.09,NW,308,5.0,-999.0,42,0.00,,,0.00,0,WeatherHawk,2013-02-06 06:55:00,
2013-02-06 02:00:00,19.7,1.3,30.10,NW,318,4.0,-999.0,44,0.00,,,0.00,0,WeatherHawk,2013-02-06 07:00:00,
2013-02-06 02:05:00,19.6,2.2,30.10,NNW,333,3.0,-999.0,46,0.00,,,0.00,0,WeatherHawk,2013-02-06 07:05:00,
2013-02-06 02:10:00,19.6,2.7,30.09,NW,320,5.0,-999.0,47,0.00,,,0.00,0,WeatherHawk,2013-02-06 07:10:00,
2013-02-06 02:19:00,19.3,2.8,30.10,NNW,340,4.0,-999.0,48,0.00,,,0.00,0,WeatherHawk,2013-02-06 07:19:00,
2013-02-06 02:24:00,19.1,3.2,30.11,WNW,300,4.0,-999.0,49,0.00,,,0.00,0,WeatherHawk,2013-02-06 07:24:00,
2013-02-06 02:30:00,18.8,3.7,30.11,WNW,299,3.0,-999.0,51,0.00,,,0.00,0,WeatherHawk,2013-02-06 07:30:00,
2013-02-06 02:35:00,18.8,3.3,30.11,NW,321,6.0,-999.0,50,0.00,,,0.00,0,WeatherHawk,2013-02-06 07:35:00,
2013-02-06 02:44:00,18.5,3.4,30.13,NW,316,2.0,-999.0,51,0.00,,,0.00,0,WeatherHawk,2013-02-06 07:44:00,
2013-02-06 02:50:00,18.2,3.2,30.14,NNW,329,0.0,-999.0,51,0.00,,,0.00,0,WeatherHawk,2013-02-06 07:50:00,
2013-02-06 02:59:00,18.2,3.5,30.14,WNW,296,1.0,-999.0,52,0.00,,,0.00,0,WeatherHawk,2013-02-06 07:59:00,
2013-02-06 03:19:00,18.1,4.3,30.14,WSW,249,0.0,-999.0,54,0.00,,,0.00,1,WeatherHawk,2013-02-06 08:19:00,
2013-02-06 03:25:00,17.8,3.6,30.14,SW,233,0.0,-999.0,53,0.00,,,0.00,0,WeatherHawk,2013-02-06 08:25:00,
2013-02-06 03:30:00,17.3,3.5,30.14,SW,233,0.0,-999.0,54,0.00,,,0.00,1,WeatherHawk,2013-02-06 08:30:00,
2013-02-06 03:35:00,17.4,4.5,30.14,WSW,238,0.0,-999.0,56,0.00,,,0.00,0,WeatherHawk,2013-02-06 08:35:00,
2013-02-06 03:40:00,18.4,5.8,30.14,WSW,252,0.0,-999.0,57,0.00,,,0.00,0,WeatherHawk,2013-02-06 08:40:00,
2013-02-06 03:45:00,18.4,5.8,30.14,West,278,3.0,-999.0,57,0.00,,,0.00,0,WeatherHawk,2013-02-06 08:45:00,
2013-02-06 03:50:00,17.9,5.3,30.15,West,262,0.0,-999.0,57,0.00,,,0.00,0,WeatherHawk,2013-02-06 08:50:00,
2013-02-06 03:55:00,18.5,6.2,30.15,West,261,0.0,-999.0,58,0.00,,,0.00,0,WeatherHawk,2013-02-06 08:55:00,
2013-02-06 04:00:00,17.4,5.1,30.15,WSW,254,0.0,-999.0,58,0.00,,,0.00,0,WeatherHawk,2013-02-06 09:00:00,
2013-02-06 04:05:00,17.4,5.9,30.15,West,271,0.0,-999.0,60,0.00,,,0.00,0,WeatherHawk,2013-02-06 09:05:00,
2013-02-06 04:15:00,16.9,7.2,30.15,WSW,237,0.0,-999.0,65,0.00,,,0.00,0,WeatherHawk,2013-02-06 09:15:00,
2013-02-06 04:20:00,17.2,8.2,30.15,WSW,243,0.0,-999.0,67,0.00,,,0.00,0,WeatherHawk,2013-02-06 09:20:00,
2013-02-06 04:25:00,16.3,7.9,30.16,West,281,0.0,-999.0,69,0.00,,,0.00,0,WeatherHawk,2013-02-06 09:25:00,
2013-02-06 04:35:00,16.3,9.8,30.17,SW,221,1.0,-999.0,75,0.00,,,0.00,0,WeatherHawk,2013-02-06 09:35:00,
2013-02-06 04:40:00,15.2,9.1,30.18,WSW,250,0.0,-999.0,76,0.00,,,0.00,1,WeatherHawk,2013-02-06 09:40:00,
2013-02-06 04:45:00,15.8,10.2,30.18,SW,234,1.0,-999.0,78,0.00,,,0.00,0,WeatherHawk,2013-02-06 09:45:00,
2013-02-06 04:50:00,16.9,11.5,30.19,WSW,253,4.0,-999.0,79,0.00,,,0.00,0,WeatherHawk,2013-02-06 09:50:00,
2013-02-06 04:55:00,16.8,10.3,30.19,West,272,2.0,-999.0,75,0.00,,,0.00,0,WeatherHawk,2013-02-06 09:55:00,
2013-02-06 05:05:00,16.4,8.9,30.20,WSW,247,0.0,-999.0,72,0.00,,,0.00,0,WeatherHawk,2013-02-06 10:05:00,
2013-02-06 05:10:00,15.9,8.5,30.20,SW,223,0.0,-999.0,72,0.00,,,0.00,0,WeatherHawk,2013-02-06 10:10:00,
2013-02-06 05:15:00,16.2,9.7,30.21,WSW,258,0.0,-999.0,75,0.00,,,0.00,0,WeatherHawk,2013-02-06 10:15:00,
2013-02-06 05:20:00,15.6,9.1,30.20,SW,225,0.0,-999.0,75,0.00,,,0.00,0,WeatherHawk,2013-02-06 10:20:00,
2013-02-06 05:25:00,14.8,8.6,30.21,SW,233,0.0,-999.0,76,0.00,,,0.00,0,WeatherHawk,2013-02-06 10:25:00,
2013-02-06 05:30:00,15.6,9.7,30.22,WSW,256,0.0,-999.0,77,0.00,,,0.00,0,WeatherHawk,2013-02-06 10:30:00,
2013-02-06 05:38:00,14.5,9.2,30.22,WSW,255,0.0,-999.0,79,0.00,,,0.00,0,WeatherHawk,2013-02-06 10:38:00,
2013-02-06 05:45:00,15.1,10.3,30.22,WSW,248,0.0,-999.0,81,0.00,,,0.00,0,WeatherHawk,2013-02-06 10:45:00,
2013-02-06 05:50:00,15.9,11.7,30.23,SSW,199,2.0,-999.0,83,0.00,,,0.00,0,WeatherHawk,2013-02-06 10:50:00,
2013-02-06 05:56:00,15.3,10.9,30.23,WSW,257,2.0,-999.0,82,0.00,,,0.00,0,WeatherHawk,2013-02-06 10:56:00,
2013-02-06 06:05:00,14.6,9.6,30.23,West,271,0.0,-999.0,80,0.00,,,0.00,0,WeatherHawk,2013-02-06 11:05:00,
2013-02-06 06:10:00,14.9,10.4,30.24,WNW,303,0.0,-999.0,82,0.00,,,0.00,1,WeatherHawk,2013-02-06 11:10:00,
2013-02-06 06:15:00,13.7,9.5,30.24,West,278,0.0,-999.0,83,0.00,,,0.00,0,WeatherHawk,2013-02-06 11:15:00,
2013-02-06 06:20:00,14.1,10.4,30.24,SW,232,0.0,-999.0,85,0.00,,,0.00,0,WeatherHawk,2013-02-06 11:20:00,
2013-02-06 06:25:00,13.6,10.4,30.24,SW,230,0.0,-999.0,87,0.00,,,0.00,1,WeatherHawk,2013-02-06 11:25:00,
2013-02-06 06:30:00,13.5,10.3,30.24,SW,231,0.0,-999.0,87,0.00,,,0.00,1,WeatherHawk,2013-02-06 11:30:00,
2013-02-06 06:40:00,13.8,11.7,30.24,SW,230,0.0,-999.0,91,0.00,,,0.00,1,WeatherHawk,2013-02-06 11:40:00,
2013-02-06 06:45:00,14.8,12.9,30.24,SW,231,0.0,-999.0,92,0.00,,,0.00,0,WeatherHawk,2013-02-06 11:45:00,
2013-02-06 06:55:00,13.0,11.8,30.25,WSW,238,0.0,-999.0,95,0.00,,,0.00,0,WeatherHawk,2013-02-06 11:55:00,
2013-02-06 07:00:00,13.8,13.1,30.26,WSW,239,0.0,-999.0,97,0.00,,,0.00,0,WeatherHawk,2013-02-06 12:00:00,
2013-02-06 07:05:00,14.1,13.4,30.26,West,274,0.0,-999.0,97,0.00,,,0.00,0,WeatherHawk,2013-02-06 12:05:00,
2013-02-06 07:15:00,13.2,12.5,30.26,West,260,0.0,-999.0,97,0.00,,,0.00,0,WeatherHawk,2013-02-06 12:15:00,
2013-02-06 07:20:00,13.3,12.9,30.26,WSW,248,0.0,-999.0,98,0.00,,,0.00,0,WeatherHawk,2013-02-06 12:20:00,
2013-02-06 07:25:00,13.1,12.8,30.27,SW,226,0.0,-999.0,99,0.00,,,0.00,1,WeatherHawk,2013-02-06 12:25:00,
2013-02-06 07:35:00,10.0,8.8,30.28,SW,227,0.0,-999.0,95,0.00,,,0.00,4,WeatherHawk,2013-02-06 12:35:00,
2013-02-06 07:40:00,12.1,10.7,30.28,SW,227,0.0,-999.0,94,0.00,,,0.00,6,WeatherHawk,2013-02-06 12:40:00,
2013-02-06 07:45:00,11.5,10.1,30.29,SW,226,0.0,-999.0,94,0.00,,,0.00,10,WeatherHawk,2013-02-06 12:45:00,
2013-02-06 07:55:00,11.8,10.9,30.30,SW,224,0.0,-999.0,96,0.00,,,0.00,43,WeatherHawk,2013-02-06 12:55:00,
2013-02-06 08:00:00,14.2,13.5,30.29,SSW,197,0.0,-999.0,97,0.00,,,0.00,60,WeatherHawk,2013-02-06 13:00:00,
2013-02-06 08:10:00,15.7,13.3,30.30,SSW,197,0.0,-999.0,90,0.00,,,0.00,77,WeatherHawk,2013-02-06 13:10:00,
2013-02-06 08:15:00,15.0,11.0,30.31,SSW,198,0.0,-999.0,84,0.00,,,0.00,38,WeatherHawk,2013-02-06 13:15:00,
2013-02-06 08:25:00,11.5,4.9,30.31,WSW,254,0.0,-999.0,74,0.00,,,0.00,40,WeatherHawk,2013-02-06 13:25:00,
2013-02-06 08:30:00,16.3,10.4,30.31,WSW,254,0.0,-999.0,77,0.00,,,0.00,122,WeatherHawk,2013-02-06 13:30:00,
2013-02-06 08:40:00,20.8,10.2,30.32,SSW,202,0.0,-999.0,63,0.00,,,0.00,145,WeatherHawk,2013-02-06 13:40:00,
2013-02-06 08:45:00,16.2,3.3,30.32,South,172,0.0,-999.0,56,0.00,,,0.00,156,WeatherHawk,2013-02-06 13:45:00,
2013-02-06 08:50:00,16.0,1.1,30.31,South,171,0.0,-999.0,51,0.00,,,0.00,169,WeatherHawk,2013-02-06 13:50:00,
2013-02-06 09:00:00,16.2,-8.4,30.31,SE,143,0.0,-999.0,32,0.00,,,0.00,192,WeatherHawk,2013-02-06 14:00:00,
2013-02-06 09:05:00,16.1,-8.5,30.31,SE,140,0.0,-999.0,32,0.00,,,0.00,201,WeatherHawk,2013-02-06 14:05:00,
2013-02-06 09:10:00,17.8,-6.4,30.31,SE,134,0.0,-999.0,33,0.00,,,0.00,209,WeatherHawk,2013-02-06 14:10:00,
2013-02-06 09:15:00,22.1,-2.5,30.31,SE,134,0.0,-999.0,33,0.00,,,0.00,219,WeatherHawk,2013-02-06 14:15:00,
2013-02-06 09:20:00,25.7,-6.1,30.31,SSW,208,2.0,-999.0,24,0.00,,,0.00,228,WeatherHawk,2013-02-06 14:20:00,
2013-02-06 09:30:00,25.7,-4.3,30.31,WSW,248,0.0,-999.0,26,0.00,,,0.00,250,WeatherHawk,2013-02-06 14:30:00,
2013-02-06 09:40:00,25.1,-8.4,30.31,SW,233,2.0,-999.0,22,0.00,,,0.00,270,WeatherHawk,2013-02-06 14:40:00,
2013-02-06 09:45:00,26.2,-5.6,30.30,SW,231,0.0,-999.0,24,0.00,,,0.00,283,WeatherHawk,2013-02-06 14:45:00,
2013-02-06 09:50:00,21.8,-18.6,30.31,NW,319,1.0,-999.0,15,0.00,,,0.00,293,WeatherHawk,2013-02-06 14:50:00,
2013-02-06 09:55:00,24.7,-15.0,30.31,NE,44,1.0,-999.0,16,0.00,,,0.00,301,WeatherHawk,2013-02-06 14:55:00,
2013-02-06 10:05:00,20.8,-23.7,30.30,ENE,62,4.0,-999.0,12,0.00,,,0.00,324,WeatherHawk,2013-02-06 15:05:00,
2013-02-06 10:10:00,25.3,-21.8,30.30,ESE,107,0.0,-999.0,11,0.00,,,0.00,331,WeatherHawk,2013-02-06 15:10:00,
2013-02-06 10:15:00,24.3,-24.4,30.30,SW,228,2.0,-999.0,10,0.00,,,0.00,342,WeatherHawk,2013-02-06 15:15:00,
2013-02-06 10:20:00,25.1,-18.7,30.30,NE,44,1.0,-999.0,13,0.00,,,0.00,351,WeatherHawk,2013-02-06 15:20:00,
2013-02-06 10:30:00,20.9,-23.6,30.30,ESE,119,3.0,-999.0,12,0.00,,,0.00,373,WeatherHawk,2013-02-06 15:30:00,
2013-02-06 10:40:00,23.5,-17.3,30.30,NE,45,2.0,-999.0,15,0.00,,,0.00,390,WeatherHawk,2013-02-06 15:40:00,
2013-02-06 10:45:00,23.5,-23.2,30.30,ESE,103,0.0,-999.0,11,0.00,,,0.00,401,WeatherHawk,2013-02-06 15:45:00,
2013-02-06 10:55:00,27.0,-24.2,30.29,SW,219,3.0,-999.0,9,0.00,,,0.00,420,WeatherHawk,2013-02-06 15:55:00,
2013-02-06 11:05:00,28.1,-21.4,30.30,SW,222,3.0,-999.0,10,0.00,,,0.00,434,WeatherHawk,2013-02-06 16:05:00,
2013-02-06 11:10:00,32.3,-13.0,30.30,SSW,198,1.0,-999.0,13,0.00,,,0.00,444,WeatherHawk,2013-02-06 16:10:00,
2013-02-06 11:15:00,31.6,-25.4,30.30,WSW,254,0.0,-999.0,7,0.00,,,0.00,447,WeatherHawk,2013-02-06 16:15:00,
2013-02-06 11:25:00,28.1,-19.5,30.30,SW,221,0.0,-999.0,11,0.00,,,0.00,453,WeatherHawk,2013-02-06 16:25:00,
2013-02-06 11:30:00,29.1,-20.6,30.31,SW,219,4.0,-999.0,10,0.00,,,0.00,453,WeatherHawk,2013-02-06 16:30:00,
2013-02-06 11:40:00,29.5,-18.5,30.31,SW,215,5.0,-999.0,11,0.00,,,0.00,477,WeatherHawk,2013-02-06 16:40:00,
2013-02-06 11:45:00,27.0,-18.8,30.30,SW,235,0.0,-999.0,12,0.00,,,0.00,474,WeatherHawk,2013-02-06 16:45:00,
2013-02-06 11:55:00,26.4,-17.7,30.30,South,171,8.0,-999.0,13,0.00,,,0.00,487,WeatherHawk,2013-02-06 16:55:00,
2013-02-06 12:00:00,27.8,-19.8,30.30,SW,218,4.0,-999.0,11,0.00,,,0.00,482,WeatherHawk,2013-02-06 17:00:00,
2013-02-06 12:05:00,25.9,-23.1,30.30,WSW,240,4.0,-999.0,10,0.00,,,0.00,518,WeatherHawk,2013-02-06 17:05:00,
2013-02-06 12:15:00,24.8,-19.0,30.30,WSW,253,7.0,-999.0,13,0.00,,,0.00,507,WeatherHawk,2013-02-06 17:15:00,
2013-02-06 12:20:00,26.4,-29.3,30.31,NW,311,4.0,-999.0,7,0.00,,,0.00,513,WeatherHawk,2013-02-06 17:20:00,
2013-02-06 12:30:00,26.5,-26.8,30.29,SW,235,7.0,-999.0,8,0.00,,,0.00,510,WeatherHawk,2013-02-06 17:30:00,
2013-02-06 12:35:00,27.0,-26.4,30.29,South,169,5.0,-999.0,8,0.00,,,0.00,497,WeatherHawk,2013-02-06 17:35:00,
2013-02-06 12:40:00,26.0,-27.2,30.29,WSW,251,5.0,-999.0,8,0.00,,,0.00,504,WeatherHawk,2013-02-06 17:40:00,
2013-02-06 12:45:00,25.6,-23.3,30.29,WSW,239,11.0,-999.0,10,0.00,,,0.00,504,WeatherHawk,2013-02-06 17:45:00,
2013-02-06 12:50:00,26.9,-26.5,30.30,SW,229,7.0,-999.0,8,0.00,,,0.00,508,WeatherHawk,2013-02-06 17:50:00,
2013-02-06 12:55:00,26.8,-24.4,30.30,NW,315,3.0,-999.0,9,0.00,,,0.00,508,WeatherHawk,2013-02-06 17:55:00,
2013-02-06 13:00:00,26.2,-21.0,30.30,WNW,290,5.0,-999.0,11,0.00,,,0.00,507,WeatherHawk,2013-02-06 18:00:00,
2013-02-06 13:10:00,26.5,-24.6,30.31,WNW,301,3.0,-999.0,9,0.00,,,0.00,503,WeatherHawk,2013-02-06 18:10:00,
2013-02-06 13:15:00,28.1,-19.6,30.30,SSW,195,2.0,-999.0,11,0.00,,,0.00,493,WeatherHawk,2013-02-06 18:15:00,
2013-02-06 13:25:00,30.2,-17.9,30.30,South,169,2.0,-999.0,11,0.00,,,0.00,522,WeatherHawk,2013-02-06 18:25:00,
2013-02-06 13:30:00,26.5,-16.2,30.30,NNW,339,5.0,-999.0,14,0.00,,,0.00,512,WeatherHawk,2013-02-06 18:30:00,
2013-02-06 13:35:00,27.7,-18.2,30.28,NW,318,4.0,-999.0,12,0.00,,,0.00,499,WeatherHawk,2013-02-06 18:35:00,
2013-02-06 13:40:00,28.2,-16.2,30.29,WNW,293,6.0,-999.0,13,0.00,,,0.00,487,WeatherHawk,2013-02-06 18:40:00,
2013-02-06 13:45:00,27.2,-15.6,30.28,NNW,331,7.0,-999.0,14,0.00,,,0.00,468,WeatherHawk,2013-02-06 18:45:00,
2013-02-06 13:50:00,27.3,-15.6,30.29,WNW,295,7.0,-999.0,14,0.00,,,0.00,464,WeatherHawk,2013-02-06 18:50:00,
2013-02-06 13:55:00,27.7,-16.6,30.28,WSW,244,2.0,-999.0,13,0.00,,,0.00,463,WeatherHawk,2013-02-06 18:55:00,
2013-02-06 14:00:00,28.8,-30.3,30.28,WNW,287,2.0,-999.0,6,0.00,,,0.00,455,WeatherHawk,2013-02-06 19:00:00,
2013-02-06 14:05:00,33.0,-27.2,30.28,SSW,213,1.0,-999.0,6,0.00,,,0.00,448,WeatherHawk,2013-02-06 19:05:00,
2013-02-06 14:10:00,28.0,-30.9,30.28,WNW,293,8.0,-999.0,6,0.00,,,0.00,430,WeatherHawk,2013-02-06 19:10:00,
2013-02-06 14:15:00,31.4,-15.3,30.27,SW,231,0.0,-999.0,12,0.00,,,0.00,434,WeatherHawk,2013-02-06 19:15:00,
2013-02-06 14:20:00,29.0,-30.2,30.27,NNW,345,5.0,-999.0,6,0.00,,,0.00,425,WeatherHawk,2013-02-06 19:20:00,
2013-02-06 14:25:00,27.4,-14.1,30.28,West,277,7.0,-999.0,15,0.00,,,0.00,418,WeatherHawk,2013-02-06 19:25:00,
2013-02-06 14:30:00,28.3,-13.4,30.27,West,271,6.0,-999.0,15,0.00,,,0.00,408,WeatherHawk,2013-02-06 19:30:00,
2013-02-06 14:35:00,27.6,-13.9,30.28,WSW,256,6.0,-999.0,15,0.00,,,0.00,400,WeatherHawk,2013-02-06 19:35:00,
2013-02-06 14:40:00,28.8,-11.7,30.28,WNW,298,3.0,-999.0,16,0.00,,,0.00,389,WeatherHawk,2013-02-06 19:40:00,
2013-02-06 14:45:00,28.5,-33.8,30.27,NW,310,5.0,-999.0,5,0.00,,,0.00,381,WeatherHawk,2013-02-06 19:45:00,
2013-02-06 14:50:00,30.9,-14.1,30.27,SSE,166,3.0,-999.0,13,0.00,,,0.00,372,WeatherHawk,2013-02-06 19:50:00,
2013-02-06 15:00:00,29.6,-29.7,30.27,SW,219,5.0,-999.0,6,0.00,,,0.00,352,WeatherHawk,2013-02-06 20:00:00,
2013-02-06 15:05:00,28.9,-30.2,30.27,WSW,255,2.0,-999.0,6,0.00,,,0.00,336,WeatherHawk,2013-02-06 20:05:00,
2013-02-06 15:10:00,29.1,-12.7,30.27,West,259,7.0,-999.0,15,0.00,,,0.00,329,WeatherHawk,2013-02-06 20:10:00,
2013-02-06 15:15:00,30.0,-10.7,30.28,SW,226,5.0,-999.0,16,0.00,,,0.00,319,WeatherHawk,2013-02-06 20:15:00,
2013-02-06 15:20:00,28.8,-25.0,30.28,WNW,289,3.0,-999.0,8,0.00,,,0.00,307,WeatherHawk,2013-02-06 20:20:00,
2013-02-06 15:25:00,29.5,-29.8,30.28,SW,216,7.0,-999.0,6,0.00,,,0.00,297,WeatherHawk,2013-02-06 20:25:00,
2013-02-06 15:30:00,31.4,-13.7,30.27,SSE,153,6.0,-999.0,13,0.00,,,0.00,288,WeatherHawk,2013-02-06 20:30:00,
2013-02-06 15:35:00,30.8,-14.2,30.28,ESE,120,3.0,-999.0,13,0.00,,,0.00,275,WeatherHawk,2013-02-06 20:35:00,
2013-02-06 15:40:00,30.8,-10.0,30.27,SW,222,6.0,-999.0,16,0.00,,,0.00,262,WeatherHawk,2013-02-06 20:40:00,
2013-02-06 15:45:00,28.5,-13.2,30.27,SSE,158,7.0,-999.0,15,0.00,,,0.00,249,WeatherHawk,2013-02-06 20:45:00,
2013-02-06 15:55:00,30.5,-9.1,30.25,SW,216,5.0,-999.0,17,0.00,,,0.00,227,WeatherHawk,2013-02-06 20:55:00,
2013-02-06 16:00:00,29.9,-10.8,30.25,South,179,3.0,-999.0,16,0.00,,,0.00,213,WeatherHawk,2013-02-06 21:00:00,
2013-02-06 16:05:00,29.3,-15.4,30.25,SSW,201,4.0,-999.0,13,0.00,,,0.00,201,WeatherHawk,2013-02-06 21:05:00,
2013-02-06 16:10:00,29.6,-15.1,30.25,South,185,7.0,-999.0,13,0.00,,,0.00,189,WeatherHawk,2013-02-06 21:10:00,
2013-02-06 16:15:00,29.6,-12.3,30.25,WSW,241,4.0,-999.0,15,0.00,,,0.00,178,WeatherHawk,2013-02-06 21:15:00,
2013-02-06 16:20:00,28.8,-10.4,30.25,SW,220,8.0,-999.0,17,0.00,,,0.00,165,WeatherHawk,2013-02-06 21:20:00,
2013-02-06 16:25:00,29.2,-11.3,30.27,SW,215,7.0,-999.0,16,0.00,,,0.00,155,WeatherHawk,2013-02-06 21:25:00,
2013-02-06 16:30:00,29.2,-12.6,30.27,SW,227,7.0,-999.0,15,0.00,,,0.00,143,WeatherHawk,2013-02-06 21:30:00,
2013-02-06 16:35:00,30.0,-14.8,30.27,SSW,203,3.0,-999.0,13,0.00,,,0.00,129,WeatherHawk,2013-02-06 21:35:00,
2013-02-06 16:40:00,28.8,-11.7,30.27,WSW,248,7.0,-999.0,16,0.00,,,0.00,119,WeatherHawk,2013-02-06 21:40:00,
2013-02-06 16:45:00,29.4,-12.5,30.27,SW,217,7.0,-999.0,15,0.00,,,0.00,109,WeatherHawk,2013-02-06 21:45:00,
2013-02-06 16:50:00,29.1,-11.4,30.27,WSW,249,5.0,-999.0,16,0.00,,,0.00,99,WeatherHawk,2013-02-06 21:50:00,
2013-02-06 16:55:00,29.3,-12.6,30.27,SW,214,7.0,-999.0,15,0.00,,,0.00,88,WeatherHawk,2013-02-06 21:55:00,
2013-02-06 17:05:00,29.3,-11.2,30.28,WSW,248,6.0,-999.0,16,0.00,,,0.00,71,WeatherHawk,2013-02-06 22:05:00,
2013-02-06 17:10:00,29.7,-13.6,30.29,SSW,204,3.0,-999.0,14,0.00,,,0.00,63,WeatherHawk,2013-02-06 22:10:00,
2013-02-06 17:15:00,29.8,-15.0,30.29,SSW,199,4.0,-999.0,13,0.00,,,0.00,55,WeatherHawk,2013-02-06 22:15:00,
2013-02-06 17:20:00,29.4,-12.5,30.29,South,188,5.0,-999.0,15,0.00,,,0.00,47,WeatherHawk,2013-02-06 22:20:00,
2013-02-06 17:30:00,29.8,-15.0,30.29,SW,217,0.0,-999.0,13,0.00,,,0.00,32,WeatherHawk,2013-02-06 22:30:00,
2013-02-06 17:35:00,29.2,-15.4,30.30,SSW,203,4.0,-999.0,13,0.00,,,0.00,26,WeatherHawk,2013-02-06 22:35:00,
2013-02-06 17:45:00,28.5,-19.3,30.30,SW,236,2.0,-999.0,11,0.00,,,0.00,10,WeatherHawk,2013-02-06 22:45:00,
2013-02-06 17:50:00,28.3,-23.2,30.30,SW,230,2.0,-999.0,9,0.00,,,0.00,7,WeatherHawk,2013-02-06 22:50:00,
2013-02-06 17:55:00,27.9,-12.4,30.31,WSW,239,0.0,-999.0,16,0.00,,,0.00,4,WeatherHawk,2013-02-06 22:55:00,
2013-02-06 18:00:00,27.1,-9.6,30.31,WSW,238,0.0,-999.0,19,0.00,,,0.00,2,WeatherHawk,2013-02-06 23:00:00,
2013-02-06 18:05:00,27.9,-15.1,30.31,SSW,208,0.0,-999.0,14,0.00,,,0.00,1,WeatherHawk,2013-02-06 23:05:00,
2013-02-06 18:10:00,27.5,-8.2,30.32,South,185,0.0,-999.0,20,0.00,,,0.00,0,WeatherHawk,2013-02-06 23:10:00,
2013-02-06 18:20:00,27.5,-6.3,30.33,SSE,160,2.0,-999.0,22,0.00,,,0.00,0,WeatherHawk,2013-02-06 23:20:00,
2013-02-06 18:25:00,28.3,-7.6,30.32,South,172,3.0,-999.0,20,0.00,,,0.00,0,WeatherHawk,2013-02-06 23:25:00,
2013-02-06 18:30:00,27.9,-9.0,30.32,SSE,162,3.0,-999.0,19,0.00,,,0.00,0,WeatherHawk,2013-02-06 23:30:00,
2013-02-06 18:40:00,27.2,-3.9,30.32,South,170,2.0,-999.0,25,0.00,,,0.00,0,WeatherHawk,2013-02-06 23:40:00,
2013-02-06 18:45:00,27.3,-3.0,30.33,South,170,2.0,-999.0,26,0.00,,,0.00,0,WeatherHawk,2013-02-06 23:45:00,
2013-02-06 18:50:00,28.0,-8.9,30.32,South,175,2.0,-999.0,19,0.00,,,0.00,0,WeatherHawk,2013-02-06 23:50:00,
2013-02-06 19:00:00,26.4,-10.2,30.35,SSE,158,3.0,-999.0,19,0.00,,,0.00,0,WeatherHawk,2013-02-07 00:00:00,
2013-02-06 19:05:00,26.4,-6.3,30.34,South,175,6.0,-999.0,23,0.00,,,0.00,0,WeatherHawk,2013-02-07 00:05:00,
2013-02-06 19:10:00,26.7,-6.9,30.34,SSE,155,6.0,-999.0,22,0.00,,,0.00,0,WeatherHawk,2013-02-07 00:10:00,
2013-02-06 19:15:00,25.6,-8.9,30.33,South,176,6.0,-999.0,21,0.00,,,0.00,0,WeatherHawk,2013-02-07 00:15:00,
2013-02-06 19:25:00,25.1,-4.9,30.33,SE,133,2.0,-999.0,26,0.00,,,0.00,0,WeatherHawk,2013-02-07 00:25:00,
2013-02-06 19:30:00,25.3,-1.0,30.33,SSE,161,4.0,-999.0,31,0.00,,,0.00,0,WeatherHawk,2013-02-07 00:30:00,
2013-02-06 19:35:00,25.0,-2.0,30.33,SSE,164,2.0,-999.0,30,0.00,,,0.00,0,WeatherHawk,2013-02-07 00:35:00,
2013-02-06 19:50:00,24.9,-2.8,30.33,SSW,194,7.0,-999.0,29,0.00,,,0.00,0,WeatherHawk,2013-02-07 00:50:00,
2013-02-06 19:55:00,24.9,-4.3,30.33,SSE,158,5.0,-999.0,27,0.00,,,0.00,0,WeatherHawk,2013-02-07 00:55:00,
2013-02-06 20:00:00,24.7,-3.7,30.33,South,181,4.0,-999.0,28,0.00,,,0.00,0,WeatherHawk,2013-02-07 01:00:00,
2013-02-06 20:05:00,24.8,-2.2,30.34,South,180,5.0,-999.0,30,0.00,,,0.00,0,WeatherHawk,2013-02-07 01:05:00,
2013-02-06 20:10:00,24.6,-6.2,30.34,South,182,5.0,-999.0,25,0.00,,,0.00,0,WeatherHawk,2013-02-07 01:10:00,
2013-02-06 20:15:00,25.2,-5.6,30.32,SSE,166,6.0,-999.0,25,0.00,,,0.00,0,WeatherHawk,2013-02-07 01:15:00,
2013-02-06 20:45:00,23.7,-1.8,30.32,South,174,8.0,-999.0,32,0.00,,,0.00,1,WeatherHawk,2013-02-07 01:45:00,
2013-02-06 20:50:00,23.6,-2.6,30.31,SE,134,5.0,-999.0,31,0.00,,,0.00,0,WeatherHawk,2013-02-07 01:50:00,
2013-02-06 20:55:00,23.3,-3.5,30.31,SSE,163,8.0,-999.0,30,0.00,,,0.00,0,WeatherHawk,2013-02-07 01:55:00,
2013-02-06 21:00:00,23.4,-2.7,30.32,SSE,159,7.0,-999.0,31,0.00,,,0.00,0,WeatherHawk,2013-02-07 02:00:00,
2013-02-06 21:10:00,23.8,-1.7,30.32,SE,145,4.0,-999.0,32,0.00,,,0.00,0,WeatherHawk,2013-02-07 02:10:00,
2013-02-06 21:35:00,23.6,-3.3,30.31,SE,145,4.0,-999.0,30,0.00,,,0.00,0,WeatherHawk,2013-02-07 02:35:00,
2013-02-06 21:45:00,24.5,-3.1,30.31,SE,137,4.0,-999.0,29,0.00,,,0.00,0,WeatherHawk,2013-02-07 02:45:00,
2013-02-06 21:50:00,23.5,-7.1,30.30,South,171,5.0,-999.0,25,0.00,,,0.00,0,WeatherHawk,2013-02-07 02:50:00,
2013-02-06 22:00:00,23.1,-6.7,30.30,SSE,160,8.0,-999.0,26,0.00,,,0.00,0,WeatherHawk,2013-02-07 03:00:00,
2013-02-06 22:05:00,23.1,-8.2,30.30,SSE,151,8.0,-999.0,24,0.00,,,0.00,0,WeatherHawk,2013-02-07 03:05:00,
2013-02-06 22:10:00,23.2,-6.6,30.30,South,169,8.0,-999.0,26,0.00,,,0.00,0,WeatherHawk,2013-02-07 03:10:00,
2013-02-06 22:15:00,23.6,-4.6,30.30,SSE,165,4.0,-999.0,28,0.00,,,0.00,0,WeatherHawk,2013-02-07 03:15:00,
2013-02-06 22:20:00,24.0,-0.9,30.29,South,186,5.0,-999.0,33,0.00,,,0.00,0,WeatherHawk,2013-02-07 03:20:00,
2013-02-06 22:35:00,23.3,-4.2,30.28,SE,141,4.0,-999.0,29,0.00,,,0.00,0,WeatherHawk,2013-02-07 03:35:00,
2013-02-06 22:45:00,23.6,-4.7,30.30,SSW,195,6.0,-999.0,28,0.00,,,0.00,0,WeatherHawk,2013-02-07 03:45:00,
2013-02-06 22:55:00,24.9,-0.1,30.29,SSE,166,4.0,-999.0,33,0.00,,,0.00,0,WeatherHawk,2013-02-07 03:55:00,
2013-02-06 23:05:00,23.7,-5.3,30.30,South,169,6.0,-999.0,27,0.00,,,0.00,0,WeatherHawk,2013-02-07 04:05:00,
2013-02-06 23:10:00,24.4,-4.0,30.30,South,171,5.0,-999.0,28,0.00,,,0.00,0,WeatherHawk,2013-02-07 04:10:00,
2013-02-06 23:20:00,23.7,-3.1,30.30,SSW,196,5.0,-999.0,30,0.00,,,0.00,1,WeatherHawk,2013-02-07 04:20:00,
2013-02-06 23:25:00,26.6,-1.3,30.30,SSE,147,3.0,-999.0,29,0.00,,,0.00,0,WeatherHawk,2013-02-07 04:25:00,
2013-02-06 23:40:00,24.2,-7.3,30.31,SSW,192,2.0,-999.0,24,0.00,,,0.00,0,WeatherHawk,2013-02-07 04:40:00,
2013-02-06 23:55:00,23.7,-2.4,30.31,SE,143,2.0,-999.0,31,0.00,,,0.00,0,WeatherHawk,2013-02-07 04:55:00,